Time;durP1;ratioP1;P1;durP2;ratioP2;P2;SDS_P1;SDS_P2;PMS_P1;PMS_P2;Temp;Humidity;BMP_temperature;BMP_pressure;BME280_temperature;BME280_humidity;BME280_pressure;Samples;Min_cycle;Max_cycle;Signal;HPM_P1;HPM_P2
2021/12/07 00:02:11;;;;;;;4.55;4.15;;;6.50;72.70;;;;;;5022023;28;20045;-78
2021/12/07 00:04:40;;;;;;;4.28;3.80;;;6.50;72.80;;;;;;5012976;28;20050;-79
2021/12/07 00:07:06;;;;;;;3.38;3.08;;;6.40;72.90;;;;;;5015157;28;20045;-79
2021/12/07 00:09:35;;;;;;;3.53;3.22;;;6.40;73.00;;;;;;4995172;28;20069;-79
2021/12/07 00:12:04;;;;;;;4.38;3.67;;;6.50;73.10;;;;;;5018091;28;20049;-79
2021/12/07 00:14:41;;;;;;;3.13;2.83;;;6.40;73.20;;;;;;4990689;28;20047;-79
2021/12/07 00:17:08;;;;;;;3.03;2.72;;;6.40;73.60;;;;;;5012908;28;20587;-79
2021/12/07 00:19:35;;;;;;;3.47;3.17;;;6.40;73.40;;;;;;5024068;28;20140;-79
2021/12/07 00:22:05;;;;;;;4.65;3.35;;;6.40;73.50;;;;;;5030589;28;20049;-79
2021/12/07 00:24:38;;;;;;;4.00;3.00;;;6.40;73.80;;;;;;5029790;28;20410;-79
2021/12/07 00:27:05;;;;;;;4.60;3.47;;;6.40;73.80;;;;;;4999655;28;20053;-79
2021/12/07 00:29:32;;;;;;;4.65;4.18;;;6.40;73.90;;;;;;5026793;28;20068;-79
2021/12/07 00:35:33;;;;;;;6.88;3.97;;;6.40;74.20;;;;;;5000399;28;20046;-79
2021/12/07 00:38:07;;;;;;;5.95;4.70;;;6.40;74.30;;;;;;5007467;28;20392;-79
2021/12/07 00:40:35;;;;;;;6.20;5.35;;;6.40;74.40;;;;;;5020782;28;20045;-79
2021/12/07 00:43:02;;;;;;;7.47;5.47;;;6.40;74.50;;;;;;5029284;28;20045;-79
2021/12/07 00:45:32;;;;;;;6.55;5.32;;;6.40;74.60;;;;;;5014550;28;20047;-79
2021/12/07 00:48:00;;;;;;;6.75;5.90;;;6.40;74.80;;;;;;5020492;28;20055;-79
2021/12/07 00:50:28;;;;;;;8.30;6.28;;;6.40;75.00;;;;;;5030344;28;20099;-79
2021/12/07 00:52:56;;;;;;;8.27;5.85;;;6.50;75.20;;;;;;5029728;28;20037;-79
2021/12/07 00:55:29;;;;;;;9.43;7.38;;;6.50;75.30;;;;;;4990358;28;20042;-78
2021/12/07 00:57:58;;;;;;;;;;;6.50;75.50;;;;;;5011899;28;20257;-79
2021/12/07 01:00:28;;;;;;;7.38;6.53;;;6.60;75.70;;;;;;5028377;28;20018;-79
2021/12/07 01:02:57;;;;;;;11.23;8.02;;;6.60;75.10;;;;;;5023044;28;20401;-79
2021/12/07 01:05:31;;;;;;;10.25;7.65;;;6.60;75.30;;;;;;5017572;28;20046;-81
2021/12/07 01:08:16;;;;;;;10.73;7.88;;;6.60;75.50;;;;;;5010198;28;20426;-79
2021/12/07 01:24:43;;;;;;;11.25;7.60;;;6.90;76.10;;;;;;5020726;28;20072;-79
2021/12/07 01:27:20;;;;;;;10.77;7.65;;;6.80;76.00;;;;;;5010987;28;20292;-79
2021/12/07 01:29:59;;;;;;;12.43;7.90;;;6.90;76.20;;;;;;5002009;28;20454;-79
2021/12/07 01:40:57;;;;;;;12.50;7.20;;;7.00;75.80;;;;;;4994101;28;20038;-77
2021/12/07 01:51:48;;;;;;;12.10;6.50;;;7.10;75.80;;;;;;5011878;28;20042;-77
2021/12/07 02:00:00;;;;;;;10.93;6.38;;;7.10;76.10;;;;;;4996120;28;20416;-78
2021/12/07 02:02:28;;;;;;;16.58;6.85;;;7.10;76.20;;;;;;5017623;28;20041;-80
2021/12/07 02:04:56;;;;;;;16.60;6.55;;;7.20;76.40;;;;;;5009720;28;20042;-79
2021/12/07 02:07:27;;;;;;;8.82;5.20;;;7.20;76.50;;;;;;5015375;28;20034;-79
2021/12/07 02:09:58;;;;;;;13.13;6.60;;;7.20;76.60;;;;;;4975851;28;20038;-80
2021/12/07 02:12:28;;;;;;;9.20;5.93;;;7.30;76.60;;;;;;5014287;28;20065;-78
2021/12/07 02:14:55;;;;;;;11.00;6.03;;;7.30;76.70;;;;;;5004665;28;20042;-78
2021/12/07 02:17:25;;;;;;;13.02;5.75;;;7.30;76.80;;;;;;5005379;28;20406;-80
2021/12/07 02:19:55;;;;;;;13.73;6.50;;;7.40;76.80;;;;;;4999185;28;20452;-78
2021/12/07 02:22:22;;;;;;;10.75;5.57;;;7.40;76.90;;;;;;5004855;28;20042;-79
2021/12/07 02:24:53;;;;;;;12.98;6.47;;;7.50;76.90;;;;;;5010174;28;20095;-81
2021/12/07 02:27:20;;;;;;;13.20;6.40;;;7.50;76.80;;;;;;5026152;28;20420;-79
2021/12/07 02:29:47;;;;;;;10.85;6.05;;;7.50;76.70;;;;;;5006368;28;20436;-79
2021/12/07 02:32:14;;;;;;;11.00;6.50;;;7.50;76.60;;;;;;5024702;28;20064;-78
2021/12/07 02:34:54;;;;;;;15.25;6.45;;;7.50;76.40;;;;;;5026832;28;20061;-80
2021/12/07 02:37:28;;;;;;;13.55;5.95;;;7.50;76.20;;;;;;5020461;28;20042;-79
2021/12/07 02:39:56;;;;;;;12.30;6.70;;;7.50;76.00;;;;;;5018267;28;20147;-79
2021/12/07 02:42:24;;;;;;;15.93;6.20;;;7.50;76.00;;;;;;5028779;28;20524;-81
2021/12/07 02:44:52;;;;;;;10.57;5.95;;;7.50;76.00;;;;;;5030199;28;20049;-80
2021/12/07 02:47:19;;;;;;;9.55;5.47;;;7.50;76.00;;;;;;5012142;28;20201;-78
2021/12/07 02:49:46;;;;;;;13.63;5.95;;;7.30;76.00;;;;;;5008244;28;20042;-79
2021/12/07 02:52:14;;;;;;;14.00;6.43;;;7.40;76.10;;;;;;5030159;28;20045;-80
2021/12/07 02:54:45;;;;;;;10.90;4.72;;;7.40;76.10;;;;;;5029989;28;20050;-78
2021/12/07 02:57:20;;;;;;;9.60;5.13;;;7.40;76.20;;;;;;5014611;28;20034;-79
2021/12/07 03:00:00;;;;;;;11.00;5.32;;;7.40;76.80;;;;;;5025053;28;20137;-78
2021/12/07 03:02:30;;;;;;;11.57;4.85;;;7.40;76.20;;;;;;5031091;28;20045;-78
2021/12/07 03:05:07;;;;;;;10.70;4.43;;;7.40;76.20;;;;;;5026637;28;20046;-82
2021/12/07 03:26:49;;;;;;;10.60;3.47;;;7.30;76.30;;;;;;5008165;28;20034;-78
2021/12/07 03:29:16;;;;;;;7.95;3.30;;;7.30;76.30;;;;;;5022964;28;20321;-78
2021/12/07 03:31:44;;;;;;;16.00;4.13;;;7.30;76.50;;;;;;4992839;28;20564;-78
2021/12/07 03:34:11;;;;;;;11.77;3.53;;;7.40;76.50;;;;;;5012941;28;20421;-79
2021/12/07 03:36:38;;;;;;;12.15;3.83;;;7.30;76.40;;;;;;5008257;28;20121;-82
2021/12/07 03:39:06;;;;;;;12.40;4.43;;;7.40;76.30;;;;;;5007933;28;20145;-78
2021/12/07 03:41:33;;;;;;;9.75;4.53;;;7.30;76.30;;;;;;5027147;28;20049;-79
2021/12/07 03:44:00;;;;;;;10.50;4.85;;;7.40;76.30;;;;;;5010551;28;20485;-78
2021/12/07 03:46:29;;;;;;;12.13;4.47;;;7.50;76.30;;;;;;5027749;28;20038;-79
2021/12/07 03:48:57;;;;;;;9.45;5.20;;;7.30;76.10;;;;;;5027602;28;20092;-78
2021/12/07 03:51:24;;;;;;;18.98;5.95;;;7.40;76.10;;;;;;5015592;28;20268;-78
2021/12/07 03:53:54;;;;;;;14.43;6.35;;;7.30;76.00;;;;;;5013998;28;20057;-78
2021/12/07 03:56:21;;;;;;;15.52;6.85;;;7.30;76.00;;;;;;5028039;28;20505;-79
2021/12/07 03:58:48;;;;;;;17.23;8.45;;;7.30;76.00;;;;;;5010850;28;20053;-78
2021/12/07 04:01:16;;;;;;;12.45;7.47;;;7.30;76.10;;;;;;5014178;28;20053;-78
2021/12/07 04:03:45;;;;;;;15.70;7.57;;;7.30;76.00;;;;;;5008191;28;20046;-79
2021/12/07 04:06:14;;;;;;;16.50;8.65;;;7.30;76.00;;;;;;5008254;28;20045;-77
2021/12/07 04:08:42;;;;;;;14.82;9.50;;;7.20;76.00;;;;;;5014189;28;20046;-76
2021/12/07 04:11:14;;;;;;;20.13;9.05;;;7.20;76.00;;;;;;5008562;28;20038;-79
2021/12/07 04:13:44;;;;;;;14.75;7.68;;;7.20;76.00;;;;;;5006869;28;20096;-77
2021/12/07 04:16:13;;;;;;;11.45;6.95;;;7.20;76.20;;;;;;4998610;28;20045;-76
2021/12/07 04:18:43;;;;;;;17.45;6.32;;;7.20;76.40;;;;;;4999896;28;20492;-77
2021/12/07 04:21:10;;;;;;;13.80;5.85;;;7.20;76.30;;;;;;5008306;28;20042;-80
2021/12/07 04:23:38;;;;;;;18.60;7.80;;;7.20;76.20;;;;;;5002481;28;20433;-76
2021/12/07 04:26:08;;;;;;;20.30;6.60;;;7.20;76.10;;;;;;5001750;28;20047;-80
2021/12/07 04:28:35;;;;;;;16.05;6.05;;;7.20;76.70;;;;;;4998183;28;20069;-79
2021/12/07 04:31:04;;;;;;;13.05;5.68;;;7.30;76.10;;;;;;4999331;28;20482;-77
2021/12/07 04:33:31;;;;;;;11.20;5.38;;;7.10;76.10;;;;;;5002418;28;20066;-77
2021/12/07 04:35:59;;;;;;;11.00;5.00;;;7.10;76.00;;;;;;5008951;28;20049;-78
2021/12/07 04:38:26;;;;;;;17.73;5.00;;;7.10;76.00;;;;;;5001527;28;20050;-76
2021/12/07 04:40:54;;;;;;;8.57;3.78;;;7.10;75.90;;;;;;5007270;28;20041;-77
2021/12/07 04:43:21;;;;;;;7.65;3.58;;;7.10;76.00;;;;;;5012090;28;20050;-76
2021/12/07 04:45:57;;;;;;;10.60;3.38;;;7.00;76.20;;;;;;5008293;28;20046;-79
2021/12/07 04:48:52;;;;;;;9.90;3.40;;;7.00;76.40;;;;;;5001321;28;20057;-77
2021/12/07 04:59:32;;;;;;;12.05;3.53;;;7.10;76.20;;;;;;5003122;28;20398;-76
2021/12/07 05:01:59;;;;;;;11.93;3.83;;;7.00;76.10;;;;;;5026915;28;20049;-77
2021/12/07 05:04:30;;;;;;;7.53;2.65;;;7.00;76.10;;;;;;5030407;28;20049;-77
2021/12/07 05:07:06;;;;;;;14.95;3.08;;;7.00;76.00;;;;;;5006985;28;20042;-77
2021/12/07 05:10:10;;;;;;;10.50;3.38;;;7.00;75.50;;;;;;5010754;28;20038;-77
2021/12/07 05:16:25;;;;;;;12.13;2.85;;;6.90;75.80;;;;;;4999561;28;20130;-77
2021/12/07 05:37:44;;;;;;;7.88;2.63;;;6.80;75.80;;;;;;5031763;28;20045;-51
2021/12/07 05:40:07;;;;;;;5.45;2.40;;;6.70;75.90;;;;;;5017892;28;20076;-51
2021/12/07 05:42:41;;;;;;;9.10;2.67;;;6.70;76.00;;;;;;5031470;28;20631;-48
2021/12/07 05:45:12;;;;;;;8.73;2.53;;;6.70;76.20;;;;;;5004528;22;20133;-76
2021/12/07 05:47:40;;;;;;;11.17;3.07;;;6.60;76.10;;;;;;4991108;28;20042;-76
2021/12/07 05:50:08;;;;;;;7.35;3.05;;;6.60;76.20;;;;;;5025541;28;20303;-76
2021/12/07 05:52:35;;;;;;;5.57;2.80;;;6.60;76.20;;;;;;5025396;28;20049;-76
2021/12/07 05:55:05;;;;;;;10.20;2.58;;;6.60;76.20;;;;;;4995353;28;20038;-76
2021/12/07 05:57:31;;;;;;;9.55;2.97;;;6.60;76.10;;;;;;5005795;28;20057;-76
2021/12/07 05:59:58;;;;;;;12.45;3.58;;;6.60;76.10;;;;;;5026896;28;20041;-76
2021/12/07 06:02:25;;;;;;;7.45;4.07;;;6.50;76.10;;;;;;5024463;28;20076;-76
2021/12/07 06:04:52;;;;;;;9.88;3.42;;;6.50;76.20;;;;;;5006979;28;20041;-76
2021/12/07 06:07:19;;;;;;;9.15;3.53;;;6.50;76.40;;;;;;5020027;28;20045;-76
2021/12/07 06:09:46;;;;;;;8.40;3.38;;;6.50;76.40;;;;;;5005323;28;20406;-76
2021/12/07 06:12:13;;;;;;;11.07;3.63;;;6.50;76.50;;;;;;5002199;28;20043;-75
2021/12/07 06:14:44;;;;;;;7.32;3.97;;;6.40;76.60;;;;;;5008912;28;20418;-76
2021/12/07 06:17:11;;;;;;;15.23;4.03;;;6.50;76.70;;;;;;5016355;28;20489;-76
2021/12/07 06:19:38;;;;;;;12.68;4.57;;;6.40;76.60;;;;;;5024892;28;20056;-76
2021/12/07 06:22:06;;;;;;;12.95;4.05;;;6.50;76.60;;;;;;5023565;28;20485;-76
2021/12/07 06:24:33;;;;;;;10.50;3.85;;;6.50;76.70;;;;;;5005878;28;20037;-76
2021/12/07 06:27:00;;;;;;;8.90;3.92;;;6.50;76.80;;;;;;5026627;28;20529;-76
2021/12/07 06:29:27;;;;;;;11.82;4.65;;;6.40;76.70;;;;;;5025646;28;20049;-77
2021/12/07 06:31:53;;;;;;;8.77;3.53;;;6.40;76.70;;;;;;4994350;28;20030;-75
2021/12/07 06:34:20;;;;;;;10.35;4.80;;;6.40;76.50;;;;;;4974443;28;20038;-75
2021/12/07 06:36:47;;;;;;;10.57;4.57;;;6.40;76.50;;;;;;5016160;28;20073;-75
2021/12/07 06:39:14;;;;;;;12.05;4.13;;;6.40;76.50;;;;;;4990605;28;20050;-74
2021/12/07 06:41:41;;;;;;;8.52;3.30;;;6.40;76.40;;;;;;5004439;28;20109;-75
2021/12/07 06:44:08;;;;;;;8.15;4.15;;;6.40;76.50;;;;;;5007036;28;20055;-75
2021/12/07 06:46:35;;;;;;;8.15;3.58;;;6.40;76.50;;;;;;5019952;28;20057;-75
2021/12/07 06:49:03;;;;;;;9.35;3.67;;;6.30;76.40;;;;;;5004224;28;20050;-74
2021/12/07 06:51:30;;;;;;;12.80;4.05;;;6.30;76.40;;;;;;4999613;28;20046;-73
2021/12/07 06:53:57;;;;;;;8.20;4.43;;;6.30;76.40;;;;;;5010270;28;20056;-74
2021/12/07 06:56:24;;;;;;;9.90;3.90;;;6.30;76.40;;;;;;5015713;28;20045;-74
2021/12/07 06:58:51;;;;;;;7.25;3.45;;;6.30;76.40;;;;;;4999600;28;20046;-75
2021/12/07 07:01:18;;;;;;;11.95;3.53;;;6.20;76.30;;;;;;5010516;28;20076;-75
2021/12/07 07:03:45;;;;;;;8.57;3.25;;;6.20;76.30;;;;;;5024664;28;20053;-74
2021/12/07 07:06:12;;;;;;;7.55;3.13;;;6.20;76.30;;;;;;5026523;28;20532;-74
2021/12/07 07:08:39;;;;;;;10.52;3.95;;;6.20;76.40;;;;;;5002274;28;20494;-74
2021/12/07 07:11:06;;;;;;;9.93;3.90;;;6.20;76.40;;;;;;4982466;28;20053;-75
2021/12/07 07:13:33;;;;;;;7.90;3.67;;;6.20;76.30;;;;;;5021085;28;20117;-75
2021/12/07 07:16:01;;;;;;;9.18;3.20;;;6.10;76.30;;;;;;5003696;28;20037;-75
2021/12/07 07:18:28;;;;;;;8.60;4.00;;;6.10;76.40;;;;;;4993692;28;20516;-75
2021/12/07 07:20:58;;;;;;;13.93;4.13;;;6.10;76.40;;;;;;5005047;28;20041;-75
2021/12/07 07:23:24;;;;;;;11.40;4.57;;;6.10;76.40;;;;;;5026653;28;20041;-75
2021/12/07 07:25:55;;;;;;;12.35;3.90;;;6.10;76.40;;;;;;5018209;28;20045;-75
2021/12/07 07:28:27;;;;;;;11.73;4.35;;;6.10;76.40;;;;;;5005989;28;20050;-74
2021/12/07 07:30:54;;;;;;;16.05;6.05;;;6.00;76.40;;;;;;5008443;28;20052;-75
2021/12/07 07:33:21;;;;;;;12.13;4.50;;;6.00;76.40;;;;;;4997432;28;20065;-75
2021/12/07 07:35:48;;;;;;;10.45;4.47;;;6.00;76.40;;;;;;5020491;28;20500;-75
2021/12/07 07:38:16;;;;;;;13.18;5.13;;;6.00;76.50;;;;;;5026304;28;20448;-75
2021/12/07 07:40:45;;;;;;;8.63;3.28;;;6.00;76.50;;;;;;4997024;28;20416;-75
2021/12/07 07:43:16;;;;;;;12.65;4.35;;;6.00;76.50;;;;;;4999364;28;20049;-75
2021/12/07 07:45:53;;;;;;;8.43;4.18;;;6.00;76.50;;;;;;5015891;28;20054;-75
2021/12/07 07:48:21;;;;;;;8.55;2.95;;;6.00;76.50;;;;;;5011500;28;20144;-75
2021/12/07 07:50:50;;;;;;;7.18;3.17;;;6.00;76.50;;;;;;5008398;28;20060;-76
2021/12/07 07:53:18;;;;;;;10.68;3.05;;;6.00;76.50;;;;;;5031582;28;20516;-75
2021/12/07 07:55:49;;;;;;;7.40;2.90;;;6.00;76.40;;;;;;5012061;28;20042;-75
2021/12/07 07:58:18;;;;;;;10.48;2.85;;;6.00;76.50;;;;;;5002765;28;20045;-75
2021/12/07 08:00:47;;;;;;;5.50;2.55;;;6.00;76.50;;;;;;5028179;28;20041;-75
2021/12/07 08:03:14;;;;;;;6.22;2.28;;;6.00;76.50;;;;;;5005706;28;20046;-75
2021/12/07 08:05:41;;;;;;;12.85;3.65;;;5.90;76.50;;;;;;5001390;28;20246;-75
2021/12/07 08:08:12;;;;;;;10.15;2.83;;;5.90;76.50;;;;;;5005753;28;20137;-75
2021/12/07 08:10:39;;;;;;;7.50;2.58;;;6.00;76.50;;;;;;5018859;28;20520;-75
2021/12/07 08:13:07;;;;;;;7.95;2.53;;;5.90;76.50;;;;;;5009398;28;20096;-75
2021/12/07 08:15:38;;;;;;;7.90;3.15;;;5.90;77.20;;;;;;4997226;28;20122;-75
2021/12/07 08:18:06;;;;;;;7.97;3.43;;;6.00;76.60;;;;;;5019431;28;20041;-75
2021/12/07 08:20:33;;;;;;;5.75;2.70;;;6.00;76.70;;;;;;5024935;28;20280;-75
2021/12/07 08:23:04;;;;;;;12.65;3.13;;;6.00;76.70;;;;;;5021105;28;20046;-75
2021/12/07 08:25:38;;;;;;;8.18;2.88;;;5.90;76.60;;;;;;5003630;28;20561;-75
2021/12/07 08:28:08;;;;;;;7.80;3.50;;;6.00;76.70;;;;;;4992287;28;20546;-75
2021/12/07 08:30:36;;;;;;;9.30;3.30;;;6.00;76.70;;;;;;4994383;28;20035;-75
2021/12/07 08:33:03;;;;;;;7.53;3.25;;;6.00;76.70;;;;;;4994135;28;20089;-75
2021/12/07 08:35:30;;;;;;;5.47;2.70;;;6.00;76.70;;;;;;4991416;28;20234;-75
2021/12/07 08:37:57;;;;;;;11.50;2.92;;;6.00;76.80;;;;;;4988756;28;20034;-75
2021/12/07 08:40:27;;;;;;;11.75;3.50;;;6.10;76.80;;;;;;5008373;28;20045;-75
2021/12/07 08:42:54;;;;;;;9.68;2.85;;;6.10;76.90;;;;;;5003445;28;20490;-75
2021/12/07 08:45:22;;;;;;;9.95;3.00;;;6.10;76.90;;;;;;5017246;28;20042;-75
2021/12/07 08:47:49;;;;;;;8.13;3.10;;;6.10;76.90;;;;;;5022484;28;20057;-75
2021/12/07 08:50:20;;;;;;;16.20;3.15;;;6.20;77.10;;;;;;5008863;28;20092;-75
2021/12/07 08:52:49;;;;;;;11.02;3.28;;;6.20;77.20;;;;;;4996214;28;20058;-75
2021/12/07 09:00:34;;;;;;;11.48;3.40;;;6.30;77.30;;;;;;5000966;28;20046;-75
2021/12/07 09:03:01;;;;;;;9.13;3.05;;;6.30;77.20;;;;;;4997201;28;20042;-75
2021/12/07 09:05:28;;;;;;;9.85;3.10;;;6.40;77.30;;;;;;4998536;28;20038;-75
2021/12/07 09:07:55;;;;;;;11.23;3.92;;;6.40;77.20;;;;;;5006823;28;20149;-75
2021/12/07 09:10:22;;;;;;;9.82;4.22;;;6.50;77.20;;;;;;4991547;28;20437;-75
2021/12/07 09:12:49;;;;;;;8.30;3.08;;;6.50;77.10;;;;;;4999872;28;20050;-75
2021/12/07 09:15:16;;;;;;;11.05;2.90;;;6.50;77.00;;;;;;5012284;28;20053;-75
2021/12/07 09:17:43;;;;;;;7.72;3.20;;;6.60;76.80;;;;;;4996382;28;20112;-75
2021/12/07 09:20:15;;;;;;;8.52;3.30;;;6.70;76.70;;;;;;4999818;28;20054;-75
2021/12/07 09:22:47;;;;;;;10.57;3.83;;;6.60;76.50;;;;;;5003586;28;20045;-75
2021/12/07 09:25:15;;;;;;;12.25;3.72;;;6.70;76.50;;;;;;5028102;28;20041;-75
2021/12/07 09:27:42;;;;;;;9.68;4.57;;;6.70;76.50;;;;;;5002623;28;20038;-75
2021/12/07 09:30:12;;;;;;;13.18;4.78;;;6.70;76.70;;;;;;4988364;28;20052;-75
2021/12/07 09:32:39;;;;;;;6.70;3.40;;;6.80;76.90;;;;;;5014377;28;20034;-75
2021/12/07 09:35:08;;;;;;;11.95;4.05;;;6.80;76.80;;;;;;5012667;28;20046;-75
2021/12/07 09:37:36;;;;;;;10.50;3.80;;;6.80;76.80;;;;;;5010082;28;20045;-75
2021/12/07 09:40:06;;;;;;;12.50;4.30;;;6.90;76.70;;;;;;5006933;28;20525;-75
2021/12/07 09:42:33;;;;;;;8.93;4.28;;;6.90;76.40;;;;;;5009891;28;20025;-75
2021/12/07 09:45:00;;;;;;;13.40;5.00;;;6.90;76.20;;;;;;5028126;28;20037;-75
2021/12/07 09:47:27;;;;;;;12.63;4.82;;;7.00;76.10;;;;;;5010704;28;20039;-75
2021/12/07 09:49:53;;;;;;;7.57;4.75;;;7.00;76.10;;;;;;5005494;28;20044;-75
2021/12/07 09:52:20;;;;;;;11.13;4.28;;;7.00;76.00;;;;;;4997327;28;20038;-75
2021/12/07 09:54:47;;;;;;;11.00;3.97;;;7.00;76.10;;;;;;4986090;28;20054;-75
2021/12/07 09:57:14;;;;;;;10.63;4.18;;;7.00;76.20;;;;;;5001026;28;20026;-75
2021/12/07 09:59:41;;;;;;;11.88;3.88;;;7.10;76.20;;;;;;4999827;28;20041;-75
2021/12/07 10:02:08;;;;;;;14.88;4.40;;;7.10;76.10;;;;;;5027886;28;20037;-74
2021/12/07 10:04:35;;;;;;;10.77;3.72;;;7.10;76.00;;;;;;4997282;28;20043;-75
2021/12/07 10:07:03;;;;;;;9.30;3.88;;;7.10;75.90;;;;;;4999431;28;20038;-75
2021/12/07 10:09:30;;;;;;;9.15;3.63;;;7.10;75.90;;;;;;5004895;28;20049;-75
2021/12/07 10:11:57;;;;;;;13.18;4.45;;;7.10;75.90;;;;;;5023595;28;20048;-75
2021/12/07 10:14:35;;;;;;;10.02;3.33;;;7.10;75.80;;;;;;5021734;28;20052;-75
2021/12/07 10:17:02;;;;;;;9.05;3.88;;;7.20;75.80;;;;;;4986106;28;20069;-75
2021/12/07 10:19:32;;;;;;;8.50;4.13;;;7.10;75.70;;;;;;5010564;28;20068;-75
2021/12/07 10:22:06;;;;;;;9.57;4.25;;;7.20;75.70;;;;;;5022214;28;20049;-75
2021/12/07 10:24:41;;;;;;;7.18;3.75;;;7.20;75.70;;;;;;5024692;28;20413;-75
2021/12/07 10:27:08;;;;;;;9.85;4.05;;;7.20;75.70;;;;;;4992875;28;20058;-75
2021/12/07 10:29:35;;;;;;;10.05;3.55;;;7.20;76.40;;;;;;5020456;28;20092;-75
2021/12/07 10:32:07;;;;;;;11.60;4.18;;;7.30;75.90;;;;;;5027318;28;20042;-75
2021/12/07 10:34:40;;;;;;;9.35;3.90;;;7.30;75.90;;;;;;5004620;28;20034;-75
2021/12/07 10:37:15;;;;;;;9.23;3.30;;;7.30;75.90;;;;;;4986600;28;20533;-75
2021/12/07 10:39:46;;;;;;;8.57;2.88;;;7.30;75.80;;;;;;5021325;28;20041;-75
2021/12/07 10:42:21;;;;;;;11.35;4.20;;;7.40;76.00;;;;;;5024593;28;20045;-75
2021/12/07 10:45:04;;;;;;;7.03;2.75;;;7.40;75.70;;;;;;5011442;28;20125;-75
2021/12/07 10:47:31;;;;;;;10.35;3.25;;;7.40;75.70;;;;;;5019179;28;20052;-75
2021/12/07 10:50:01;;;;;;;9.60;3.33;;;7.40;75.60;;;;;;4988777;28;20042;-75
2021/12/07 10:52:34;;;;;;;8.82;3.03;;;7.40;75.60;;;;;;4985461;28;20046;-75
2021/12/07 10:55:25;;;;;;;5.82;2.67;;;7.40;75.50;;;;;;4989577;28;20386;-75
2021/12/07 10:57:58;;;;;;;13.40;3.72;;;7.50;75.30;;;;;;5012205;28;20560;-75
2021/12/07 11:00:40;;;;;;;8.80;3.42;;;7.50;75.30;;;;;;5031099;28;20240;-75
2021/12/07 11:03:11;;;;;;;;;;;7.50;75.20;;;;;;5012594;28;20030;-75
2021/12/07 11:05:54;;;;;;;5.88;2.53;;;7.60;75.30;;;;;;5019745;28;19925;-75
2021/12/07 11:08:25;;;;;;;12.75;3.00;;;7.60;75.00;;;;;;5021656;28;20464;-75
2021/12/07 11:10:54;;;;;;;6.50;2.50;;;7.60;74.90;;;;;;5008054;28;20509;-75
2021/12/07 11:13:35;;;;;;;11.32;3.65;;;7.60;75.00;;;;;;5008192;28;20424;-75
2021/12/07 11:16:10;;;;;;;8.15;3.28;;;7.60;75.50;;;;;;5020981;28;20455;-75
2021/12/07 11:18:40;;;;;;;8.18;2.83;;;7.60;74.90;;;;;;5031085;28;20471;-75
2021/12/07 11:21:08;;;;;;;6.88;3.03;;;7.60;74.80;;;;;;5027723;22;20075;-48
2021/12/07 11:23:40;;;;;;;8.55;2.33;;;7.60;74.70;;;;;;5036046;28;20041;-50
2021/12/07 11:31:37;;;;;;;9.02;2.65;;;7.70;74.50;;;;;;5016097;28;20029;-50
2021/12/07 11:34:12;;;;;;;6.15;2.60;;;7.70;74.20;;;;;;5018089;28;20041;-50
2021/12/07 11:36:43;;;;;;;4.95;1.95;;;7.80;74.00;;;;;;5015063;28;20061;-51
2021/12/07 11:39:31;;;;;;;4.00;1.77;;;7.80;74.00;;;;;;5018424;28;20103;-49
2021/12/07 11:42:06;;;;;;;8.48;2.88;;;7.80;73.80;;;;;;5008996;28;20038;-52
2021/12/07 11:44:51;;;;;;;10.02;2.33;;;7.80;74.00;;;;;;5009804;28;20088;-51
2021/12/07 11:47:31;;;;;;;6.43;2.28;;;7.90;73.80;;;;;;5019541;28;20041;-50
2021/12/07 11:50:08;;;;;;;6.15;2.13;;;7.90;73.60;;;;;;4993230;28;20494;-47
2021/12/07 11:52:38;;;;;;;9.57;3.22;;;7.90;73.70;;;;;;5007879;28;20038;-51
2021/12/07 11:55:06;;;;;;;3.85;1.95;;;7.90;73.50;;;;;;5023399;28;20034;-48
2021/12/07 11:57:33;;;;;;;4.90;1.92;;;8.00;73.60;;;;;;5032689;28;20438;-50
2021/12/07 12:00:00;;;;;;;8.85;2.33;;;8.00;73.70;;;;;;5022309;28;20037;-49
2021/12/07 12:02:27;;;;;;;4.30;2.35;;;8.00;73.60;;;;;;5020389;28;20045;-49
2021/12/07 12:04:54;;;;;;;10.95;6.03;;;8.00;73.50;;;;;;5031276;28;20209;-48
2021/12/07 12:07:21;;;;;;;7.30;5.30;;;8.10;73.40;;;;;;5011573;28;20046;-48
2021/12/07 12:09:50;;;;;;;6.28;3.70;;;8.10;73.30;;;;;;5005389;28;20034;-52
2021/12/07 12:12:49;;;;;;;6.43;3.13;;;8.10;73.20;;;;;;5019047;28;20114;-53
2021/12/07 12:15:43;;;;;;;5.97;3.38;;;8.20;72.90;;;;;;5012768;28;20038;-50
2021/12/07 12:18:19;;;;;;;6.38;3.30;;;8.20;72.60;;;;;;5011690;28;20671;-51
2021/12/07 12:21:24;;;;;;;8.73;3.80;;;8.30;73.00;;;;;;5013117;28;20053;-49
2021/12/07 12:24:10;;;;;;;4.85;2.50;;;8.30;72.20;;;;;;5030878;28;20045;-47
2021/12/07 12:26:37;;;;;;;9.88;3.53;;;8.40;72.40;;;;;;5010818;28;20088;-52
2021/12/07 12:29:22;;;;;;;7.40;3.22;;;8.50;73.10;;;;;;5010220;28;20037;-50
2021/12/07 12:31:54;;;;;;;10.63;2.33;;;8.50;72.30;;;;;;5026205;28;20541;-49
2021/12/07 12:34:29;;;;;;;8.57;2.55;;;8.60;72.90;;;;;;5019960;28;20045;-50
2021/12/07 12:37:07;;;;;;;7.65;2.75;;;8.70;72.90;;;;;;5008399;28;20029;-49
2021/12/07 12:39:41;;;;;;;8.02;2.30;;;8.70;72.80;;;;;;5025095;28;20100;-51
2021/12/07 12:42:09;;;;;;;5.05;1.95;;;8.80;72.40;;;;;;5032206;28;20045;-52
2021/12/07 12:44:38;;;;;;;4.03;1.60;;;8.90;72.50;;;;;;5025154;28;20517;-50
2021/12/07 12:47:06;;;;;;;5.60;2.15;;;8.90;72.10;;;;;;5011802;28;20042;-51
2021/12/07 12:49:40;;;;;;;7.35;1.70;;;9.00;71.90;;;;;;5024816;28;20505;-48
2021/12/07 12:52:08;;;;;;;5.93;2.65;;;9.10;71.60;;;;;;5016724;28;20049;-51
2021/12/07 12:54:43;;;;;;;5.18;1.90;;;9.10;71.60;;;;;;5012057;28;20042;-53
2021/12/07 12:57:13;;;;;;;5.18;1.73;;;9.10;71.40;;;;;;5009768;28;20045;-49
2021/12/07 12:59:42;;;;;;;4.57;1.92;;;9.20;71.20;;;;;;5023730;28;20037;-50
2021/12/07 13:02:10;;;;;;;6.00;1.92;;;9.20;71.00;;;;;;5030393;28;20045;-49
2021/12/07 13:04:38;;;;;;;6.65;2.03;;;9.30;70.90;;;;;;5030925;28;20055;-51
2021/12/07 13:09:43;;;;;;;5.88;1.90;;;9.40;70.10;;;;;;5009579;28;20037;-49
2021/12/07 13:12:10;;;;;;;;;;;9.40;69.60;;;;;;5030197;28;20042;-49
2021/12/07 13:14:51;;;;;;;2.53;1.02;;;9.50;69.60;;;;;;5025933;28;19969;-49
2021/12/07 13:17:23;;;;;;;4.70;1.13;;;9.50;69.20;;;;;;5020410;28;20033;-51
2021/12/07 13:20:02;;;;;;;7.38;2.47;;;9.50;69.40;;;;;;5022100;28;20041;-51
2021/12/07 13:23:01;;;;;;;2.50;1.15;;;9.60;68.80;;;;;;5009385;28;20056;-48
2021/12/07 13:25:40;;;;;;;5.13;1.40;;;9.60;68.30;;;;;;5004628;28;20046;-49
2021/12/07 13:28:11;;;;;;;9.50;2.13;;;9.60;68.40;;;;;;5015697;28;20052;-52
2021/12/07 13:31:21;;;;;;;6.20;2.20;;;9.60;68.70;;;;;;5018757;28;20120;-47
2021/12/07 13:33:52;;;;;;;4.82;1.38;;;9.70;68.10;;;;;;5007490;28;20034;-49
2021/12/07 13:36:45;;;;;;;4.50;1.70;;;9.70;68.60;;;;;;5019516;28;20037;-50
2021/12/07 13:39:26;;;;;;;3.72;2.00;;;9.70;67.30;;;;;;4991675;28;20050;-49
2021/12/07 13:42:17;;;;;;;3.95;1.15;;;9.70;68.20;;;;;;4992315;28;20033;-50
2021/12/07 13:45:03;;;;;;;5.80;1.73;;;9.70;67.60;;;;;;5011389;28;20100;-48
2021/12/07 13:47:33;;;;;;;5.10;1.73;;;9.70;68.10;;;;;;5021763;28;20500;-49
2021/12/07 13:50:09;;;;;;;3.08;1.00;;;9.70;67.80;;;;;;4990885;28;20457;-49
2021/12/07 13:52:40;;;;;;;4.65;1.70;;;9.70;67.40;;;;;;5000827;28;20446;-50
2021/12/07 13:55:11;;;;;;;5.45;1.40;;;9.70;67.60;;;;;;5011471;28;20046;-49
2021/12/07 13:57:40;;;;;;;5.70;1.38;;;9.70;67.80;;;;;;5003864;28;20096;-52
2021/12/07 14:00:13;;;;;;;4.88;1.55;;;9.70;67.90;;;;;;5008550;28;20041;-51
2021/12/07 14:02:43;;;;;;;3.67;1.45;;;9.70;67.70;;;;;;5011181;28;20084;-50
2021/12/07 14:05:15;;;;;;;4.78;1.60;;;9.70;67.60;;;;;;5010032;28;20120;-52
2021/12/07 14:07:43;;;;;;;4.53;1.30;;;9.60;67.60;;;;;;5007755;28;20069;-51
2021/12/07 14:10:15;;;;;;;4.60;1.42;;;9.60;67.70;;;;;;4998724;28;20043;-53
2021/12/07 14:12:45;;;;;;;4.80;1.70;;;9.60;67.60;;;;;;5011751;28;20449;-50
2021/12/07 14:15:19;;;;;;;3.45;1.52;;;9.60;67.60;;;;;;5008586;28;20107;-49
2021/12/07 14:17:53;;;;;;;4.70;1.75;;;9.50;67.30;;;;;;5003960;28;20745;-49
2021/12/07 14:20:29;;;;;;;2.40;1.10;;;9.50;67.00;;;;;;5008428;28;20105;-53
2021/12/07 14:22:57;;;;;;;3.22;1.92;;;9.40;66.70;;;;;;5015986;28;20052;-50
2021/12/07 14:25:24;;;;;;;3.40;1.33;;;9.40;67.30;;;;;;5027822;28;20033;-51
2021/12/07 14:27:51;;;;;;;6.93;1.55;;;9.30;67.20;;;;;;5019798;28;20058;-51
2021/12/07 14:30:18;;;;;;;2.55;1.35;;;9.30;67.20;;;;;;5005104;28;20094;-50
2021/12/07 14:32:45;;;;;;;2.63;1.60;;;9.30;67.30;;;;;;5010092;28;20131;-47
2021/12/07 14:35:14;;;;;;;2.70;1.45;;;9.20;67.30;;;;;;5009210;28;20040;-50
2021/12/07 14:37:41;;;;;;;5.18;2.05;;;9.20;67.50;;;;;;5006901;28;20045;-48
2021/12/07 14:40:08;;;;;;;3.55;1.60;;;9.10;67.60;;;;;;5006332;28;20056;-48
2021/12/07 14:42:35;;;;;;;3.40;1.55;;;9.10;67.40;;;;;;5009905;28;20049;-49
2021/12/07 14:45:08;;;;;;;4.85;1.67;;;9.10;67.40;;;;;;5006997;28;20042;-49
2021/12/07 14:47:35;;;;;;;3.97;1.67;;;9.00;67.40;;;;;;5003627;28;20387;-52
2021/12/07 14:50:02;;;;;;;4.68;1.98;;;8.90;67.20;;;;;;5019428;28;20440;-50
2021/12/07 14:52:35;;;;;;;3.83;1.70;;;8.90;67.30;;;;;;5025577;28;20129;-50
2021/12/07 14:55:05;;;;;;;4.82;1.63;;;8.80;66.90;;;;;;5002252;28;20038;-52